Time;durP1;ratioP1;P1;durP2;ratioP2;P2;SDS_P1;SDS_P2;PMS_P1;PMS_P2;Temp;Humidity;BMP_temperature;BMP_pressure;BME280_temperature;BME280_humidity;BME280_pressure;Samples;Min_cycle;Max_cycle;Signal;HPM_P1;HPM_P2
2023/05/05 00:01:14;;;;;;;3.80;3.57;;;;;;;14.84;100.00;96769.94;5073632;28;20232;-57
2023/05/05 00:03:41;;;;;;;5.22;4.10;;;;;;;14.87;100.00;96778.44;5073879;28;20203;-60
2023/05/05 00:06:08;;;;;;;5.50;3.75;;;;;;;14.86;100.00;96768.75;5070824;28;20213;-59
2023/05/05 00:08:36;;;;;;;4.38;3.80;;;;;;;14.86;100.00;96763.44;5070198;28;20713;-60
2023/05/05 00:11:02;;;;;;;7.40;4.43;;;;;;;14.81;100.00;96765.75;5070293;28;20522;-60
2023/05/05 00:13:28;;;;;;;7.28;4.32;;;;;;;14.76;100.00;96762.78;5070580;28;20202;-59
2023/05/05 00:15:55;;;;;;;6.20;4.00;;;;;;;14.72;100.00;96756.13;5070254;28;20210;-60
2023/05/05 00:18:21;;;;;;;6.68;3.90;;;;;;;14.66;100.00;96761.28;5071016;28;20195;-59
2023/05/05 00:20:48;;;;;;;5.65;3.75;;;;;;;14.66;100.00;96759.44;5070080;28;20252;-61
2023/05/05 00:23:15;;;;;;;4.75;4.15;;;;;;;14.58;100.00;96762.09;5070868;28;20214;-60
2023/05/05 00:25:43;;;;;;;4.28;3.70;;;;;;;14.58;100.00;96759.44;5070408;28;20233;-59
2023/05/05 00:28:10;;;;;;;4.10;3.60;;;;;;;14.53;100.00;96756.41;5070160;28;20233;-60
2023/05/05 00:31:04;;;;;;;3.77;3.57;;;;;;;14.53;100.00;96756.41;5071812;28;20199;-61
2023/05/05 00:33:30;;;;;;;4.18;3.78;;;;;;;14.48;100.00;96758.75;5070836;28;20194;-60
2023/05/05 00:35:57;;;;;;;4.63;3.80;;;;;;;14.44;100.00;96757.41;5070958;28;20203;-59
2023/05/05 00:38:23;;;;;;;6.57;4.00;;;;;;;14.37;100.00;96756.41;5070461;28;20195;-59
2023/05/05 00:40:51;;;;;;;4.50;4.10;;;;;;;14.35;100.00;96761.03;5070736;28;20206;-59
2023/05/05 00:43:17;;;;;;;5.93;4.47;;;;;;;14.36;100.00;96758.22;5070152;28;20218;-60
2023/05/05 00:45:46;;;;;;;5.87;4.10;;;;;;;14.34;100.00;96768.22;5070424;28;20550;-59
2023/05/05 00:48:15;;;;;;;4.23;3.90;;;;;;;14.32;100.00;96766.66;5070008;28;20218;-58
2023/05/05 00:50:43;;;;;;;5.13;3.83;;;;;;;14.28;100.00;96763.50;5070083;28;20833;-58
2023/05/05 00:53:09;;;;;;;4.40;4.00;;;;;;;14.24;100.00;96766.66;5070330;28;20690;-58
2023/05/05 00:55:36;;;;;;;4.07;3.80;;;;;;;14.27;100.00;96766.34;5070153;28;20198;-58
2023/05/05 00:58:04;;;;;;;4.00;3.70;;;;;;;14.22;100.00;96768.63;5073172;28;20512;-59
2023/05/05 01:00:31;;;;;;;4.23;3.87;;;;;;;14.22;100.00;96763.31;5075564;28;20539;-60
2023/05/05 01:02:57;;;;;;;4.07;3.77;;;;;;;14.15;100.00;96757.81;5072632;28;20206;-59
2023/05/05 01:05:25;;;;;;;4.07;3.73;;;;;;;14.21;100.00;96759.00;5070320;28;20203;-59
2023/05/05 01:08:12;;;;;;;4.50;4.10;;;;;;;14.19;100.00;96758.34;5070179;28;20261;-58
2023/05/05 01:10:42;;;;;;;5.30;3.90;;;;;;;14.14;100.00;96758.81;5070030;28;20569;-60
2023/05/05 01:13:20;;;;;;;3.90;3.60;;;;;;;14.15;100.00;96752.50;5069533;28;20647;-59
2023/05/05 01:15:49;;;;;;;5.97;3.83;;;;;;;14.17;100.00;96760.34;5073607;28;20794;-59
2023/05/05 01:18:20;;;;;;;4.67;3.70;;;;;;;14.21;100.00;96764.31;5078537;28;20201;-60
2023/05/05 01:20:49;;;;;;;7.00;3.77;;;;;;;14.21;100.00;96756.31;5077852;28;20230;-59
2023/05/05 01:23:21;;;;;;;5.80;3.93;;;;;;;14.14;100.00;96761.47;5078099;28;20214;-59
2023/05/05 01:26:08;;;;;;;3.83;3.63;;;;;;;14.16;100.00;96763.97;5073361;28;20234;-60
2023/05/05 01:28:53;;;;;;;4.67;4.27;;;;;;;14.14;100.00;96779.25;5073498;28;20722;-58
2023/05/05 01:31:52;;;;;;;5.00;4.63;;;;;;;14.16;100.00;96770.13;5073886;28;20732;-59
2023/05/05 01:34:24;;;;;;;4.23;3.83;;;;;;;14.15;100.00;96775.59;5065070;28;20202;-58
2023/05/05 01:36:57;;;;;;;3.90;3.60;;;;;;;14.20;100.00;96778.63;5073473;28;20635;-59
2023/05/05 01:39:28;;;;;;;3.97;3.67;;;;;;;14.17;100.00;96769.13;5073628;28;20194;-59
2023/05/05 01:41:58;;;;;;;5.40;3.70;;;;;;;14.21;100.00;96773.13;5073812;28;20236;-60
2023/05/05 01:44:52;;;;;;;4.70;4.03;;;;;;;14.20;100.00;96773.31;5073365;28;20203;-59
2023/05/05 01:47:20;;;;;;;5.60;3.80;;;;;;;14.04;100.00;96762.59;5073957;28;20195;-59
2023/05/05 01:49:50;;;;;;;5.87;4.20;;;;;;;14.04;100.00;96767.91;5073365;28;20230;-59
2023/05/05 01:52:17;;;;;;;5.00;4.07;;;;;;;14.04;100.00;96770.56;5073272;28;21344;-59
2023/05/05 01:54:45;;;;;;;4.97;4.57;;;;;;;14.09;100.00;96770.94;5072954;28;20210;-58
2023/05/05 01:57:13;;;;;;;4.83;4.43;;;;;;;13.98;100.00;96776.53;5071875;28;20249;-58
2023/05/05 01:59:39;;;;;;;4.83;4.40;;;;;;;13.98;100.00;96774.72;5072693;28;20527;-60
2023/05/05 02:02:08;;;;;;;5.23;4.10;;;;;;;13.99;100.00;96767.59;5072879;28;20207;-60
2023/05/05 02:04:36;;;;;;;4.37;3.47;;;;;;;13.96;100.00;96768.72;5073058;28;20539;-59
2023/05/05 02:07:07;;;;;;;4.00;3.70;;;;;;;13.95;100.00;96773.22;5073165;28;20214;-60
2023/05/05 02:09:33;;;;;;;4.00;3.70;;;;;;;13.99;100.00;96767.59;5072970;28;20647;-59
2023/05/05 02:12:01;;;;;;;4.10;3.80;;;;;;;13.90;100.00;96764.88;5073436;28;20199;-58
2023/05/05 02:14:29;;;;;;;4.07;3.83;;;;;;;13.72;100.00;96772.13;5072722;28;20272;-61
2023/05/05 02:16:57;;;;;;;4.87;3.47;;;;;;;13.74;100.00;96762.19;5073207;28;20206;-60
2023/05/05 02:19:28;;;;;;;3.87;3.57;;;;;;;13.68;100.00;96762.78;5072208;28;20207;-58
2023/05/05 02:21:54;;;;;;;5.03;3.40;;;;;;;13.67;100.00;96765.63;5073307;28;20581;-60
2023/05/05 02:24:22;;;;;;;3.73;3.47;;;;;;;13.68;100.00;96757.47;5074825;28;20646;-59
2023/05/05 02:26:50;;;;;;;4.00;3.70;;;;;;;13.56;100.00;96765.91;5076536;28;20210;-60
2023/05/05 02:29:19;;;;;;;3.90;3.60;;;;;;;13.60;100.00;96765.44;5082197;28;20276;-60
2023/05/05 02:31:47;;;;;;;3.70;3.37;;;;;;;13.53;100.00;96761.75;5088445;28;20186;-59
2023/05/05 02:34:16;;;;;;;3.77;3.23;;;;;;;13.52;100.00;96759.22;5084162;28;20206;-59
2023/05/05 02:36:44;;;;;;;4.07;3.40;;;;;;;13.51;100.00;96758.41;5082450;28;20201;-60
2023/05/05 02:39:14;;;;;;;3.80;3.50;;;;;;;13.46;100.00;96769.50;5083279;28;20194;-60
2023/05/05 02:41:43;;;;;;;2.97;2.67;;;;;;;13.48;100.00;96769.34;5083623;28;20207;-58
2023/05/05 02:44:10;;;;;;;3.63;3.33;;;;;;;13.37;100.00;96772.25;5085231;28;20202;-60
2023/05/05 02:46:37;;;;;;;3.60;3.30;;;;;;;13.38;100.00;96765.97;5085217;28;20194;-59
2023/05/05 02:49:04;;;;;;;4.13;3.30;;;;;;;13.38;100.00;96768.63;5080179;28;20242;-60
2023/05/05 02:51:31;;;;;;;4.30;3.20;;;;;;;13.38;100.00;96773.94;5078791;28;20205;-60
2023/05/05 02:53:57;;;;;;;3.73;3.13;;;;;;;13.35;100.00;96774.25;5080245;28;20198;-60
2023/05/05 02:56:32;;;;;;;3.57;3.27;;;;;;;13.34;100.00;96773.41;5072283;28;20584;-58
2023/05/05 02:59:08;;;;;;;3.70;3.40;;;;;;;13.37;100.00;96774.91;5072125;28;20266;-59
2023/05/05 03:01:50;;;;;;;3.43;3.13;;;;;;;13.37;100.00;96772.25;5072425;28;20225;-60
2023/05/05 03:04:22;;;;;;;3.20;3.00;;;;;;;13.36;100.00;96775.91;5072150;28;20213;-59
2023/05/05 03:06:53;;;;;;;3.87;3.50;;;;;;;13.39;100.00;96767.66;5072459;28;20611;-60
2023/05/05 03:09:23;;;;;;;5.00;3.40;;;;;;;13.43;100.00;96772.47;5071825;28;20213;-60
2023/05/05 03:11:52;;;;;;;5.20;3.30;;;;;;;13.42;100.00;96772.63;5071800;28;20550;-58
2023/05/05 03:14:21;;;;;;;4.13;2.97;;;;;;;13.43;100.00;96766.31;5071215;28;20206;-59
2023/05/05 03:16:49;;;;;;;3.77;2.80;;;;;;;13.49;100.00;96760.38;5072117;28;20195;-58
2023/05/05 03:19:17;;;;;;;4.40;3.20;;;;;;;13.50;100.00;96746.09;5071882;28;20195;-59
2023/05/05 03:21:44;;;;;;;4.03;3.27;;;;;;;13.56;100.00;96755.28;5072113;28;20308;-59
2023/05/05 03:24:15;;;;;;;3.50;3.20;;;;;;;13.50;100.00;96754.06;5072501;28;20198;-59
2023/05/05 03:26:42;;;;;;;3.60;3.40;;;;;;;13.52;100.00;96752.09;5072898;28;20583;-59
2023/05/05 03:29:08;;;;;;;3.67;3.17;;;;;;;13.52;100.00;96760.06;5072023;28;20222;-58
2023/05/05 03:31:36;;;;;;;4.37;2.90;;;;;;;13.54;100.00;96755.41;5072654;28;20211;-60
2023/05/05 03:34:03;;;;;;;3.77;3.47;;;;;;;13.56;100.00;96765.91;5072858;28;20210;-60
2023/05/05 03:36:30;;;;;;;4.27;3.60;;;;;;;13.58;100.00;96770.06;5076497;28;20223;-60
2023/05/05 03:38:58;;;;;;;3.73;3.43;;;;;;;13.62;100.00;96760.78;5076055;28;20260;-59
2023/05/05 03:41:25;;;;;;;4.00;3.63;;;;;;;13.64;100.00;96758.78;5077725;28;20252;-58
2023/05/05 03:43:52;;;;;;;5.23;3.73;;;;;;;13.63;100.00;96765.13;5075137;28;20646;-60
2023/05/05 03:46:18;;;;;;;3.73;3.43;;;;;;;13.66;100.00;96753.31;5073933;28;20210;-59
2023/05/05 03:48:47;;;;;;;3.70;3.50;;;;;;;13.67;100.00;96755.84;5072107;28;20223;-58
2023/05/05 03:51:13;;;;;;;4.23;3.83;;;;;;;13.63;100.00;96754.47;5074247;28;20198;-61
2023/05/05 03:53:40;;;;;;;5.87;3.60;;;;;;;13.68;100.00;96762.78;5076959;28;20203;-60
2023/05/05 03:56:07;;;;;;;4.40;4.00;;;;;;;13.65;100.00;96760.47;5076559;28;20301;-60
2023/05/05 03:58:33;;;;;;;3.90;3.60;;;;;;;13.69;100.00;96767.13;5075514;28;20228;-60
2023/05/05 04:01:00;;;;;;;5.67;3.97;;;;;;;13.69;100.00;96768.94;5071804;28;20215;-60
2023/05/05 04:03:27;;;;;;;4.40;4.00;;;;;;;13.70;100.00;96768.81;5071096;28;20801;-59
2023/05/05 04:05:54;;;;;;;4.13;3.67;;;;;;;13.65;100.00;96768.44;5070621;28;20206;-60
2023/05/05 04:08:21;;;;;;;5.07;3.70;;;;;;;13.66;100.00;96769.28;5070565;28;20213;-59
2023/05/05 04:10:47;;;;;;;4.47;4.07;;;;;;;13.63;100.00;96773.09;5070773;28;20214;-61
2023/05/05 04:13:14;;;;;;;4.53;4.13;;;;;;;13.60;100.00;96777.88;5070759;28;20206;-60
2023/05/05 04:15:45;;;;;;;3.97;3.67;;;;;;;13.62;100.00;96776.72;5070477;28;20213;-60
2023/05/05 04:18:11;;;;;;;4.80;3.97;;;;;;;13.63;100.00;96777.56;5071439;28;20587;-59
2023/05/05 04:20:40;;;;;;;3.80;3.50;;;;;;;13.56;100.00;96777.38;5070915;28;20245;-61
2023/05/05 04:23:08;;;;;;;3.70;3.40;;;;;;;13.52;100.00;96783.16;5071321;28;20210;-62
2023/05/05 04:25:35;;;;;;;3.80;3.50;;;;;;;13.52;100.00;96778.66;5070521;28;20213;-59
2023/05/05 04:28:01;;;;;;;6.93;5.83;;;;;;;13.46;100.00;96776.66;5070437;28;20202;-58
2023/05/05 04:30:28;;;;;;;5.47;4.27;;;;;;;13.31;100.00;96776.41;5071043;28;20214;-62
2023/05/05 04:32:54;;;;;;;4.00;3.60;;;;;;;13.32;100.00;96775.38;5070612;28;20211;-59
2023/05/05 04:35:21;;;;;;;4.60;4.20;;;;;;;13.30;100.00;96779.19;5070633;28;20202;-59
2023/05/05 04:37:47;;;;;;;3.70;3.40;;;;;;;13.39;100.00;96781.72;5071700;28;20202;-58
2023/05/05 04:40:15;;;;;;;4.70;4.30;;;;;;;13.41;100.00;96785.09;5071449;28;20201;-61
2023/05/05 04:42:43;;;;;;;5.37;3.93;;;;;;;13.45;100.00;96790.91;5070766;28;20546;-60
2023/05/05 04:45:13;;;;;;;4.77;3.27;;;;;;;13.46;100.00;96787.28;5070832;28;20202;-61
2023/05/05 04:47:39;;;;;;;6.63;3.07;;;;;;;13.58;100.00;96786.00;5071080;28;20278;-61
2023/05/05 04:50:07;;;;;;;3.10;2.90;;;;;;;13.69;100.00;96785.72;5074531;28;20707;-58
2023/05/05 04:52:33;;;;;;;3.20;3.00;;;;;;;13.93;100.00;96779.69;5074660;28;20234;-59
2023/05/05 04:55:00;;;;;;;6.60;3.17;;;;;;;14.02;100.00;96783.22;5074693;28;20209;-59
2023/05/05 04:57:29;;;;;;;4.00;2.90;;;;;;;13.89;100.00;96794.28;5074286;28;20293;-59
2023/05/05 04:59:56;;;;;;;3.50;3.20;;;;;;;14.01;100.00;96784.19;5074041;28;20195;-59
2023/05/05 05:02:22;;;;;;;3.50;3.17;;;;;;;13.93;100.00;96785.84;5074262;28;20202;-59
2023/05/05 05:04:49;;;;;;;3.40;3.10;;;;;;;13.99;100.00;96788.84;5074041;28;20213;-58
2023/05/05 05:07:15;;;;;;;3.67;3.27;;;;;;;14.02;100.00;96793.84;5074219;28;20635;-59
2023/05/05 05:09:42;;;;;;;3.80;3.50;;;;;;;14.13;100.00;96790.91;5074253;28;20226;-58
2023/05/05 05:12:08;;;;;;;5.38;3.42;;;;;;;14.70;100.00;96794.56;5074575;28;20265;-59
2023/05/05 05:14:41;;;;;;;8.47;3.50;;;;;;;15.23;100.00;96788.72;5073207;28;20214;-58
2023/05/05 05:17:08;;;;;;;6.03;3.63;;;;;;;15.86;100.00;96786.13;5074272;28;20557;-59
2023/05/05 05:19:34;;;;;;;4.75;3.33;;;;;;;16.40;100.00;96795.03;5075337;28;20190;-59
2023/05/05 05:22:01;;;;;;;5.43;3.63;;;;;;;16.82;100.00;96798.16;5076378;28;20260;-59
2023/05/05 05:24:27;;;;;;;3.92;3.63;;;;;;;17.13;98.99;96805.25;5074376;28;20206;-59
2023/05/05 05:26:54;;;;;;;3.15;2.85;;;;;;;17.22;95.92;96804.16;5074224;28;20194;-60
2023/05/05 05:29:21;;;;;;;3.70;3.10;;;;;;;17.51;97.67;96804.22;5073131;28;20229;-59
2023/05/05 05:31:49;;;;;;;3.38;3.17;;;;;;;17.64;95.52;96791.06;5073657;28;20217;-59
2023/05/05 05:34:16;;;;;;;3.35;3.05;;;;;;;17.85;94.29;96801.88;5073678;28;20210;-59
2023/05/05 05:36:43;;;;;;;3.88;3.25;;;;;;;17.97;95.04;96804.09;5073224;28;20207;-58
2023/05/05 05:39:09;;;;;;;4.45;3.55;;;;;;;17.98;94.57;96808.44;5076406;28;20293;-60
2023/05/05 05:41:35;;;;;;;4.10;3.70;;;;;;;18.30;93.31;96803.53;5077584;28;20210;-59
2023/05/05 05:44:04;;;;;;;5.20;4.78;;;;;;;18.45;91.98;96808.84;5077520;28;20217;-58
2023/05/05 05:46:31;;;;;;;4.70;4.18;;;;;;;18.62;92.07;96809.50;5073081;28;20211;-60
2023/05/05 05:48:59;;;;;;;5.65;5.15;;;;;;;18.89;84.57;96803.38;5073280;28;20586;-59
2023/05/05 05:51:25;;;;;;;4.78;4.38;;;;;;;19.19;84.45;96809.47;5073265;28;20213;-59
2023/05/05 05:53:51;;;;;;;5.25;4.75;;;;;;;19.52;81.94;96812.47;5073367;28;20203;-59
2023/05/05 05:56:18;;;;;;;5.30;4.90;;;;;;;19.81;83.51;96807.69;5072893;28;20646;-59
2023/05/05 05:58:47;;;;;;;6.10;4.85;;;;;;;20.06;81.36;96807.22;5072834;28;20199;-59
2023/05/05 06:01:14;;;;;;;6.65;4.72;;;;;;;19.91;81.82;96810.03;5072545;28;20325;-58
2023/05/05 06:03:41;;;;;;;6.00;4.40;;;;;;;19.85;84.17;96813.50;5073056;28;20217;-59
2023/05/05 06:06:09;;;;;;;5.05;4.40;;;;;;;19.51;83.80;96806.25;5073362;28;20206;-59
2023/05/05 06:08:35;;;;;;;5.18;4.68;;;;;;;19.25;86.73;96811.34;5073715;28;20254;-59
2023/05/05 06:11:02;;;;;;;5.45;4.43;;;;;;;19.21;85.59;96815.44;5073956;28;20233;-58
2023/05/05 06:13:29;;;;;;;4.68;4.20;;;;;;;19.08;84.51;96809.97;5078918;28;20266;-59
2023/05/05 06:15:55;;;;;;;8.07;4.45;;;;;;;19.12;85.58;96808.56;5087303;28;20183;-59
2023/05/05 06:18:21;;;;;;;5.50;4.60;;;;;;;19.19;86.44;96806.78;5082281;28;20194;-59
2023/05/05 06:20:51;;;;;;;5.57;5.07;;;;;;;19.36;84.17;96813.53;5072760;28;20245;-60
2023/05/05 06:23:19;;;;;;;5.10;4.60;;;;;;;19.78;81.57;96818.84;5076444;28;20206;-58
2023/05/05 06:25:46;;;;;;;9.18;5.22;;;;;;;20.25;79.41;96806.50;5075018;28;20624;-59
2023/05/05 06:28:12;;;;;;;5.68;4.78;;;;;;;20.51;78.45;96812.00;5074947;28;20206;-59
2023/05/05 06:30:39;;;;;;;6.43;4.05;;;;;;;20.94;74.08;96811.75;5078849;28;20229;-59
2023/05/05 06:33:05;;;;;;;4.70;4.20;;;;;;;20.78;73.35;96807.56;5083716;28;20365;-63
2023/05/05 06:35:32;;;;;;;5.78;4.38;;;;;;;21.14;72.96;96804.59;5084044;28;20206;-60
2023/05/05 06:37:59;;;;;;;4.68;4.20;;;;;;;21.43;74.85;96808.75;5073491;28;20217;-60
2023/05/05 06:40:27;;;;;;;5.95;4.32;;;;;;;21.77;70.11;96811.22;5072764;28;20649;-60
2023/05/05 06:42:53;;;;;;;4.43;4.03;;;;;;;21.62;68.53;96807.91;5072653;28;20199;-59
2023/05/05 06:45:20;;;;;;;4.22;3.72;;;;;;;21.46;70.35;96817.22;5072654;28;20241;-60
2023/05/05 06:47:46;;;;;;;4.18;3.78;;;;;;;21.47;69.00;96810.78;5072244;28;20628;-60
2023/05/05 06:50:13;;;;;;;4.55;4.25;;;;;;;21.51;71.16;96817.41;5071688;28;20662;-59
2023/05/05 06:52:39;;;;;;;5.03;4.32;;;;;;;21.56;68.68;96808.75;5072473;28;20203;-59
2023/05/05 06:55:07;;;;;;;5.22;4.28;;;;;;;22.03;66.66;96808.50;5072040;28;20640;-59
2023/05/05 06:57:34;;;;;;;4.72;4.15;;;;;;;22.04;67.28;96809.31;5071723;28;20291;-59
2023/05/05 07:00:04;;;;;;;3.72;3.40;;;;;;;22.50;67.26;96801.91;5071922;28;20209;-59
2023/05/05 07:02:30;;;;;;;7.53;4.18;;;;;;;22.88;67.77;96798.47;5072501;28;20202;-60
2023/05/05 07:04:57;;;;;;;4.80;3.63;;;;;;;23.33;67.62;96800.03;5071610;28;20202;-60
2023/05/05 07:07:23;;;;;;;5.10;3.88;;;;;;;23.26;67.11;96802.78;5072203;28;20199;-60
2023/05/05 07:09:50;;;;;;;4.43;3.33;;;;;;;23.70;63.34;96804.50;5071656;28;20570;-60
2023/05/05 07:12:16;;;;;;;6.07;3.92;;;;;;;23.69;60.30;96805.59;5070866;28;20632;-59
2023/05/05 07:14:44;;;;;;;4.15;3.72;;;;;;;24.05;60.89;96812.09;5071525;28;20323;-60
2023/05/05 07:17:11;;;;;;;6.07;3.45;;;;;;;23.66;61.65;96810.59;5071877;28;20226;-59
2023/05/05 07:19:37;;;;;;;3.90;3.45;;;;;;;23.88;61.51;96803.72;5070821;28;20233;-60
2023/05/05 07:22:04;;;;;;;7.78;3.92;;;;;;;23.83;59.83;96802.75;5071146;28;20245;-60
2023/05/05 07:24:30;;;;;;;4.20;3.22;;;;;;;23.98;60.31;96795.13;5071531;28;20211;-59
2023/05/05 07:26:57;;;;;;;4.00;3.58;;;;;;;24.05;57.20;96794.03;5071751;28;20202;-59
2023/05/05 07:29:24;;;;;;;4.93;3.67;;;;;;;23.99;57.77;96791.38;5071239;28;20214;-60
2023/05/05 07:31:52;;;;;;;3.92;3.45;;;;;;;24.10;60.55;96796.03;5071594;28;20337;-60
2023/05/05 07:34:18;;;;;;;4.68;3.38;;;;;;;24.14;58.27;96794.56;5073122;28;20203;-60
2023/05/05 07:36:45;;;;;;;7.35;3.63;;;;;;;24.15;58.48;96798.94;5072928;28;20202;-59
2023/05/05 07:39:13;;;;;;;4.00;3.60;;;;;;;24.04;60.37;96792.38;5073072;28;20710;-59
2023/05/05 07:41:40;;;;;;;6.95;3.30;;;;;;;24.45;57.10;96789.00;5072412;28;20195;-59
2023/05/05 07:44:06;;;;;;;5.00;3.38;;;;;;;24.39;57.83;96787.22;5070632;28;20217;-59
2023/05/05 07:46:33;;;;;;;3.53;2.92;;;;;;;24.40;55.87;96777.22;5071290;28;20221;-59
2023/05/05 07:49:01;;;;;;;5.28;3.28;;;;;;;24.45;55.87;96783.59;5071720;28;20202;-59
2023/05/05 07:51:28;;;;;;;5.03;2.70;;;;;;;24.85;58.12;96788.53;5070866;28;20229;-59
2023/05/05 07:53:55;;;;;;;5.50;2.90;;;;;;;24.36;57.41;96787.66;5070999;28;20612;-59
2023/05/05 07:56:21;;;;;;;3.33;2.60;;;;;;;24.56;57.70;96784.72;5070859;28;20203;-61
2023/05/05 07:58:48;;;;;;;2.88;2.47;;;;;;;24.68;57.12;96775.63;5070332;28;20638;-60
2023/05/05 08:01:14;;;;;;;10.55;3.13;;;;;;;24.43;55.78;96787.59;5070222;28;20190;-60
2023/05/05 08:03:41;;;;;;;3.67;2.80;;;;;;;24.61;56.47;96780.28;5070792;28;20194;-61
2023/05/05 08:06:09;;;;;;;2.47;2.05;;;;;;;24.64;56.80;96784.41;5069664;28;20539;-60
2023/05/05 08:08:36;;;;;;;2.60;2.35;;;;;;;24.67;54.87;96775.84;5070026;28;20198;-62
2023/05/05 08:11:03;;;;;;;5.85;2.70;;;;;;;24.71;55.65;96777.03;5070614;28;20230;-60
2023/05/05 08:13:30;;;;;;;3.28;2.70;;;;;;;24.73;57.71;96767.63;5070150;28;20198;-62
2023/05/05 08:15:56;;;;;;;2.55;2.35;;;;;;;24.76;54.41;96767.16;5070678;28;20244;-60
2023/05/05 08:18:23;;;;;;;6.22;2.90;;;;;;;24.57;54.13;96767.44;5070258;28;20202;-61
2023/05/05 08:20:53;;;;;;;3.42;2.42;;;;;;;24.26;54.41;96765.75;5072345;28;20645;-61
2023/05/05 08:23:22;;;;;;;5.20;2.30;;;;;;;24.34;56.32;96762.72;5070449;28;20206;-61
2023/05/05 08:25:49;;;;;;;2.92;2.63;;;;;;;24.10;55.23;96759.03;5072188;28;20562;-61
2023/05/05 08:28:16;;;;;;;3.72;2.60;;;;;;;24.52;56.15;96762.72;5072143;28;20194;-61
2023/05/05 08:30:42;;;;;;;2.97;2.65;;;;;;;24.66;55.71;96764.19;5071416;28;20229;-61
2023/05/05 08:33:09;;;;;;;2.70;2.40;;;;;;;24.89;57.01;96768.09;5070419;28;20517;-61
2023/05/05 08:35:36;;;;;;;3.50;2.72;;;;;;;24.96;55.44;96766.94;5072776;28;20198;-61
2023/05/05 08:38:02;;;;;;;5.63;2.78;;;;;;;25.14;57.31;96764.19;5070476;28;20198;-60
2023/05/05 08:40:34;;;;;;;4.22;2.53;;;;;;;25.28;56.37;96764.78;5069682;28;20206;-62
2023/05/05 08:43:01;;;;;;;3.95;2.70;;;;;;;25.16;53.28;96755.81;5069693;28;20646;-61
2023/05/05 08:45:28;;;;;;;4.45;2.42;;;;;;;25.25;53.12;96757.13;5070646;28;20233;-61
2023/05/05 08:47:56;;;;;;;3.08;2.40;;;;;;;25.10;53.58;96756.75;5069729;28;20718;-61
2023/05/05 08:50:24;;;;;;;2.80;2.55;;;;;;;25.19;53.46;96756.16;5069626;28;20226;-61
2023/05/05 08:52:54;;;;;;;3.53;2.60;;;;;;;25.10;54.85;96751.31;5069686;28;20315;-61
2023/05/05 08:55:24;;;;;;;4.90;2.60;;;;;;;25.00;54.99;96749.19;5070268;28;20206;-61
2023/05/05 08:57:54;;;;;;;3.42;3.10;;;;;;;25.03;53.87;96750.59;5069516;28;20597;-61
2023/05/05 09:00:21;;;;;;;2.95;2.67;;;;;;;25.09;57.33;96749.66;5068855;28;20260;-60
2023/05/05 09:02:48;;;;;;;6.18;2.83;;;;;;;25.30;53.88;96751.84;5070450;28;20598;-60
2023/05/05 09:05:15;;;;;;;12.18;3.45;;;;;;;25.25;54.79;96751.72;5070612;28;20202;-60
2023/05/05 09:07:42;;;;;;;3.17;2.40;;;;;;;25.09;54.02;96733.44;5070262;28;20198;-61
2023/05/05 09:10:10;;;;;;;2.38;2.17;;;;;;;25.15;52.26;96743.34;5070582;28;20234;-61
2023/05/05 09:12:39;;;;;;;3.30;2.28;;;;;;;25.19;52.60;96747.22;5069633;28;20217;-61
2023/05/05 09:15:08;;;;;;;3.55;3.25;;;;;;;25.26;52.13;96739.81;5070438;28;20199;-61
2023/05/05 09:17:34;;;;;;;3.95;2.60;;;;;;;25.24;53.35;96744.66;5070296;28;20207;-61
2023/05/05 09:20:03;;;;;;;6.45;2.40;;;;;;;25.58;52.59;96740.34;5070507;28;20260;-60
2023/05/05 09:22:35;;;;;;;4.03;2.85;;;;;;;25.67;51.10;96733.53;5070147;28;20927;-60
2023/05/05 09:25:02;;;;;;;5.72;2.55;;;;;;;25.43;54.28;96735.41;5070340;28;20221;-60
2023/05/05 09:27:29;;;;;;;4.88;2.72;;;;;;;25.83;53.56;96734.69;5068670;28;20550;-61
2023/05/05 09:29:56;;;;;;;3.25;2.90;;;;;;;25.61;55.66;96735.28;5069039;28;20202;-60
2023/05/05 09:32:24;;;;;;;6.53;3.10;;;;;;;25.94;56.91;96723.84;5070285;28;20309;-61
2023/05/05 09:34:58;;;;;;;3.13;2.83;;;;;;;25.81;51.56;96720.56;5070451;28;20202;-60
2023/05/05 09:37:28;;;;;;;3.63;2.92;;;;;;;25.92;52.03;96719.75;5074038;28;20293;-60
2023/05/05 09:39:55;;;;;;;3.50;2.83;;;;;;;26.26;53.43;96710.75;5072976;28;20214;-61
2023/05/05 09:42:21;;;;;;;3.15;2.90;;;;;;;26.27;51.84;96709.69;5076177;28;20202;-61
2023/05/05 09:44:50;;;;;;;4.75;2.65;;;;;;;25.90;51.57;96706.41;5074996;28;20202;-60
2023/05/05 09:47:17;;;;;;;5.57;4.13;;;;;;;25.90;53.63;96705.63;5074248;28;20211;-61
2023/05/05 09:49:47;;;;;;;4.00;3.20;;;;;;;25.86;50.47;96705.28;5073594;28;20289;-62
2023/05/05 09:52:14;;;;;;;3.00;2.75;;;;;;;25.99;52.72;96704.19;5072515;28;20249;-61
2023/05/05 09:54:41;;;;;;;4.25;3.08;;;;;;;25.89;51.45;96701.25;5082157;28;20190;-61
2023/05/05 09:57:09;;;;;;;5.00;3.00;;;;;;;25.97;51.06;96690.06;5094079;28;20194;-60
2023/05/05 09:59:37;;;;;;;3.80;3.00;;;;;;;26.31;53.95;96694.59;5083539;28;20206;-62
2023/05/05 10:02:11;;;;;;;4.95;2.78;;;;;;;26.59;53.03;96691.06;5085836;28;20204;-61
2023/05/05 10:04:39;;;;;;;3.45;2.70;;;;;;;26.55;51.62;96688.00;5075904;28;20238;-60
2023/05/05 10:07:07;;;;;;;2.88;2.60;;;;;;;26.59;53.76;96681.03;5075393;28;20638;-60
2023/05/05 10:09:33;;;;;;;2.40;2.30;;;;;;;26.60;52.97;96671.03;5074744;28;20545;-60
2023/05/05 10:12:00;;;;;;;3.50;3.00;;;;;;;26.22;50.86;96668.91;5083998;28;20218;-62
2023/05/05 10:14:31;;;;;;;5.13;2.78;;;;;;;26.22;55.23;96674.31;5093104;28;20195;-60
2023/05/05 10:16:59;;;;;;;4.20;2.75;;;;;;;26.24;53.06;96672.22;5086251;28;20203;-59
2023/05/05 10:19:27;;;;;;;3.65;2.78;;;;;;;26.10;53.53;96666.22;5071131;28;20198;-59
2023/05/05 10:21:56;;;;;;;4.38;3.00;;;;;;;26.25;52.27;96668.44;5072896;28;20289;-59
2023/05/05 10:24:39;;;;;;;3.63;2.97;;;;;;;25.90;51.60;96664.97;5072709;28;20214;-58
2023/05/05 10:27:12;;;;;;;3.03;2.60;;;;;;;26.31;55.60;96653.91;5072981;28;20194;-58
2023/05/05 10:29:47;;;;;;;4.40;2.70;;;;;;;26.44;52.74;96659.03;5072275;28;20638;-59
2023/05/05 10:32:17;;;;;;;2.92;2.72;;;;;;;26.38;52.64;96648.34;5072340;28;20218;-59
2023/05/05 10:34:50;;;;;;;2.92;2.67;;;;;;;26.33;50.65;96649.06;5072168;28;20647;-59
2023/05/05 10:37:16;;;;;;;2.97;2.63;;;;;;;26.53;52.21;96649.47;5071388;28;20294;-59
2023/05/05 10:39:46;;;;;;;3.55;2.80;;;;;;;26.44;50.44;96645.50;5072718;28;20206;-59
2023/05/05 10:42:13;;;;;;;4.25;2.70;;;;;;;26.33;49.32;96640.09;5072799;28;20540;-59
2023/05/05 10:44:40;;;;;;;3.65;3.35;;;;;;;26.32;51.92;96636.59;5072613;28;20207;-59
2023/05/05 10:47:08;;;;;;;2.80;2.60;;;;;;;26.19;50.69;96636.84;5072315;28;20217;-60
2023/05/05 10:49:45;;;;;;;5.18;3.20;;;;;;;26.08;49.73;96626.84;5072926;28;20211;-59
2023/05/05 10:52:17;;;;;;;4.25;3.28;;;;;;;26.19;51.76;96621.41;5072889;28;20202;-59
2023/05/05 10:55:00;;;;;;;3.35;3.03;;;;;;;26.35;51.66;96625.25;5072746;28;20302;-58
2023/05/05 10:57:27;;;;;;;3.25;3.05;;;;;;;26.55;50.58;96625.63;5073238;28;20202;-59
2023/05/05 10:59:53;;;;;;;3.03;2.80;;;;;;;26.51;52.71;96620.91;5072340;28;20217;-60
2023/05/05 11:02:26;;;;;;;3.40;3.10;;;;;;;26.61;50.97;96612.97;5072638;28;20206;-60
2023/05/05 11:05:07;;;;;;;5.28;3.10;;;;;;;26.92;54.16;96606.22;5072715;28;20332;-60
2023/05/05 11:07:34;;;;;;;3.30;2.80;;;;;;;27.16;52.89;96610.41;5070707;28;20672;-60
2023/05/05 11:10:05;;;;;;;3.50;2.83;;;;;;;27.31;51.45;96602.50;5071852;28;20210;-59
2023/05/05 11:12:33;;;;;;;3.20;3.00;;;;;;;26.98;49.45;96597.06;5072336;28;20226;-60
2023/05/05 11:15:42;;;;;;;3.63;3.25;;;;;;;26.45;48.00;96592.91;5072576;28;20198;-60
2023/05/05 11:18:29;;;;;;;3.10;2.85;;;;;;;26.78;49.36;96585.88;5071534;28;20199;-59
2023/05/05 11:21:20;;;;;;;3.03;2.88;;;;;;;26.89;51.97;96582.28;5070362;28;20234;-58
2023/05/05 11:23:52;;;;;;;2.90;2.70;;;;;;;27.05;49.05;96578.72;5071696;28;20214;-59
2023/05/05 11:26:51;;;;;;;3.67;3.38;;;;;;;27.31;46.65;96583.47;5072343;28;20198;-59
2023/05/05 11:29:18;;;;;;;6.07;3.15;;;;;;;27.05;48.49;96576.00;5071927;28;20214;-59
2023/05/05 11:31:46;;;;;;;3.38;3.13;;;;;;;27.17;47.96;96579.47;5071879;28;20218;-59
2023/05/05 11:34:34;;;;;;;2.53;2.33;;;;;;;27.37;47.63;96574.31;5071933;28;20216;-58
2023/05/05 11:37:02;;;;;;;4.35;2.92;;;;;;;27.35;46.10;96573.72;5072262;28;20325;-59